sensor_id;sensor_type;location;lat;lon;timestamp;P1;durP1;ratioP1;P2;durP2;ratioP2
13991;SDS011;7070;53.586;9.692;2023-07-30T00:01:08;4.60;;;3.30;;
13991;SDS011;7070;53.586;9.692;2023-07-30T00:03:35;4.40;;;2.37;;
13991;SDS011;7070;53.586;9.692;2023-07-30T00:06:01;6.70;;;3.00;;
13991;SDS011;7070;53.586;9.692;2023-07-30T00:08:28;4.30;;;2.63;;
13991;SDS011;7070;53.586;9.692;2023-07-30T00:10:57;3.47;;;2.43;;
13991;SDS011;7070;53.586;9.692;2023-07-30T00:13:24;4.97;;;3.07;;
13991;SDS011;7070;53.586;9.692;2023-07-30T00:15:51;3.03;;;2.23;;
13991;SDS011;7070;53.586;9.692;2023-07-30T00:18:18;4.40;;;2.40;;
13991;SDS011;7070;53.586;9.692;2023-07-30T00:20:45;3.53;;;2.53;;
13991;SDS011;7070;53.586;9.692;2023-07-30T00:23:12;3.97;;;2.60;;
13991;SDS011;7070;53.586;9.692;2023-07-30T00:25:39;3.70;;;2.53;;
13991;SDS011;7070;53.586;9.692;2023-07-30T00:28:07;5.00;;;2.53;;
13991;SDS011;7070;53.586;9.692;2023-07-30T00:30:34;7.13;;;2.90;;
13991;SDS011;7070;53.586;9.692;2023-07-30T00:33:00;6.20;;;2.63;;
13991;SDS011;7070;53.586;9.692;2023-07-30T00:35:27;3.60;;;2.43;;
13991;SDS011;7070;53.586;9.692;2023-07-30T00:37:54;5.17;;;2.53;;
13991;SDS011;7070;53.586;9.692;2023-07-30T00:40:21;4.10;;;2.40;;
13991;SDS011;7070;53.586;9.692;2023-07-30T00:42:48;5.40;;;3.30;;
13991;SDS011;7070;53.586;9.692;2023-07-30T00:45:16;9.00;;;2.53;;
13991;SDS011;7070;53.586;9.692;2023-07-30T00:47:43;4.13;;;2.27;;
13991;SDS011;7070;53.586;9.692;2023-07-30T00:50:10;4.43;;;2.37;;
13991;SDS011;7070;53.586;9.692;2023-07-30T00:52:40;4.27;;;2.50;;
13991;SDS011;7070;53.586;9.692;2023-07-30T00:55:07;4.30;;;2.90;;
13991;SDS011;7070;53.586;9.692;2023-07-30T00:57:35;4.93;;;2.70;;
13991;SDS011;7070;53.586;9.692;2023-07-30T01:00:03;5.43;;;2.77;;
13991;SDS011;7070;53.586;9.692;2023-07-30T01:02:34;4.77;;;2.47;;
13991;SDS011;7070;53.586;9.692;2023-07-30T01:05:02;3.40;;;2.50;;
13991;SDS011;7070;53.586;9.692;2023-07-30T01:07:29;4.17;;;2.07;;
13991;SDS011;7070;53.586;9.692;2023-07-30T01:09:56;2.97;;;2.00;;
13991;SDS011;7070;53.586;9.692;2023-07-30T01:12:23;4.30;;;2.27;;
13991;SDS011;7070;53.586;9.692;2023-07-30T01:14:50;4.47;;;2.50;;
13991;SDS011;7070;53.586;9.692;2023-07-30T01:17:17;3.17;;;2.20;;
13991;SDS011;7070;53.586;9.692;2023-07-30T01:19:46;3.40;;;2.40;;
13991;SDS011;7070;53.586;9.692;2023-07-30T01:22:15;3.33;;;2.07;;
13991;SDS011;7070;53.586;9.692;2023-07-30T01:24:42;4.83;;;2.30;;
13991;SDS011;7070;53.586;9.692;2023-07-30T01:27:11;6.53;;;2.80;;
13991;SDS011;7070;53.586;9.692;2023-07-30T01:29:45;5.10;;;2.13;;
13991;SDS011;7070;53.586;9.692;2023-07-30T01:32:20;2.13;;;1.80;;
13991;SDS011;7070;53.586;9.692;2023-07-30T01:34:56;3.63;;;2.50;;
13991;SDS011;7070;53.586;9.692;2023-07-30T01:37:25;3.60;;;2.20;;
13991;SDS011;7070;53.586;9.692;2023-07-30T01:39:53;5.07;;;3.03;;
13991;SDS011;7070;53.586;9.692;2023-07-30T01:42:20;4.30;;;2.83;;
13991;SDS011;7070;53.586;9.692;2023-07-30T01:44:47;4.40;;;3.03;;
13991;SDS011;7070;53.586;9.692;2023-07-30T01:47:14;3.93;;;2.93;;
13991;SDS011;7070;53.586;9.692;2023-07-30T01:49:41;4.77;;;3.23;;
13991;SDS011;7070;53.586;9.692;2023-07-30T01:52:08;3.73;;;2.57;;
13991;SDS011;7070;53.586;9.692;2023-07-30T01:54:36;3.80;;;2.67;;
13991;SDS011;7070;53.586;9.692;2023-07-30T01:57:03;4.27;;;2.83;;
13991;SDS011;7070;53.586;9.692;2023-07-30T01:59:30;5.10;;;2.73;;
13991;SDS011;7070;53.586;9.692;2023-07-30T02:01:57;4.43;;;3.30;;
13991;SDS011;7070;53.586;9.692;2023-07-30T02:04:24;8.73;;;3.10;;
13991;SDS011;7070;53.586;9.692;2023-07-30T02:06:50;4.57;;;3.00;;
13991;SDS011;7070;53.586;9.692;2023-07-30T02:09:17;5.73;;;3.43;;
13991;SDS011;7070;53.586;9.692;2023-07-30T02:11:45;5.40;;;3.10;;
13991;SDS011;7070;53.586;9.692;2023-07-30T02:14:12;5.30;;;3.20;;
13991;SDS011;7070;53.586;9.692;2023-07-30T02:16:39;6.77;;;3.80;;
13991;SDS011;7070;53.586;9.692;2023-07-30T02:19:07;6.47;;;3.50;;
13991;SDS011;7070;53.586;9.692;2023-07-30T02:21:34;6.13;;;3.30;;
13991;SDS011;7070;53.586;9.692;2023-07-30T02:24:04;5.00;;;3.80;;
13991;SDS011;7070;53.586;9.692;2023-07-30T02:26:35;5.07;;;2.90;;
13991;SDS011;7070;53.586;9.692;2023-07-30T02:29:03;4.47;;;3.23;;
13991;SDS011;7070;53.586;9.692;2023-07-30T02:31:30;5.67;;;3.67;;
13991;SDS011;7070;53.586;9.692;2023-07-30T02:33:56;7.17;;;3.37;;
13991;SDS011;7070;53.586;9.692;2023-07-30T02:36:23;5.03;;;3.10;;
13991;SDS011;7070;53.586;9.692;2023-07-30T02:38:50;5.93;;;4.00;;
13991;SDS011;7070;53.586;9.692;2023-07-30T02:41:17;4.93;;;3.50;;
13991;SDS011;7070;53.586;9.692;2023-07-30T02:43:44;8.27;;;3.60;;
13991;SDS011;7070;53.586;9.692;2023-07-30T02:46:12;6.60;;;3.70;;
13991;SDS011;7070;53.586;9.692;2023-07-30T02:48:39;8.73;;;3.60;;
13991;SDS011;7070;53.586;9.692;2023-07-30T02:51:06;5.13;;;3.70;;
13991;SDS011;7070;53.586;9.692;2023-07-30T02:53:33;4.83;;;3.20;;
13991;SDS011;7070;53.586;9.692;2023-07-30T02:56:00;7.87;;;3.80;;
13991;SDS011;7070;53.586;9.692;2023-07-30T02:58:27;4.97;;;3.33;;
13991;SDS011;7070;53.586;9.692;2023-07-30T03:00:53;6.63;;;4.00;;
13991;SDS011;7070;53.586;9.692;2023-07-30T03:03:22;5.27;;;3.40;;
13991;SDS011;7070;53.586;9.692;2023-07-30T03:05:49;5.37;;;3.57;;
13991;SDS011;7070;53.586;9.692;2023-07-30T03:08:15;5.37;;;3.90;;
13991;SDS011;7070;53.586;9.692;2023-07-30T03:10:42;5.93;;;3.63;;
13991;SDS011;7070;53.586;9.692;2023-07-30T03:13:09;6.63;;;3.90;;
13991;SDS011;7070;53.586;9.692;2023-07-30T03:15:36;8.30;;;3.80;;
13991;SDS011;7070;53.586;9.692;2023-07-30T03:18:03;11.87;;;4.37;;
13991;SDS011;7070;53.586;9.692;2023-07-30T03:20:31;8.83;;;3.87;;
13991;SDS011;7070;53.586;9.692;2023-07-30T03:22:58;5.30;;;3.83;;
13991;SDS011;7070;53.586;9.692;2023-07-30T03:25:25;6.97;;;3.40;;
13991;SDS011;7070;53.586;9.692;2023-07-30T03:27:51;5.57;;;3.40;;
13991;SDS011;7070;53.586;9.692;2023-07-30T03:30:18;7.40;;;4.23;;
13991;SDS011;7070;53.586;9.692;2023-07-30T03:32:45;5.43;;;3.30;;
13991;SDS011;7070;53.586;9.692;2023-07-30T03:35:12;5.23;;;3.40;;
13991;SDS011;7070;53.586;9.692;2023-07-30T03:37:40;14.00;;;4.13;;
13991;SDS011;7070;53.586;9.692;2023-07-30T03:40:08;7.47;;;3.37;;
13991;SDS011;7070;53.586;9.692;2023-07-30T03:42:35;7.10;;;3.57;;
13991;SDS011;7070;53.586;9.692;2023-07-30T03:45:02;8.00;;;3.53;;
13991;SDS011;7070;53.586;9.692;2023-07-30T03:47:29;6.47;;;3.93;;
13991;SDS011;7070;53.586;9.692;2023-07-30T03:49:56;10.50;;;3.63;;
13991;SDS011;7070;53.586;9.692;2023-07-30T03:52:23;9.23;;;4.07;;
13991;SDS011;7070;53.586;9.692;2023-07-30T03:54:51;6.90;;;3.70;;
13991;SDS011;7070;53.586;9.692;2023-07-30T03:57:18;5.23;;;3.37;;
13991;SDS011;7070;53.586;9.692;2023-07-30T03:59:45;7.40;;;4.27;;
13991;SDS011;7070;53.586;9.692;2023-07-30T04:02:12;12.70;;;3.53;;
13991;SDS011;7070;53.586;9.692;2023-07-30T04:04:40;8.37;;;3.87;;
13991;SDS011;7070;53.586;9.692;2023-07-30T04:07:08;6.57;;;3.57;;
13991;SDS011;7070;53.586;9.692;2023-07-30T04:09:35;10.40;;;4.20;;
13991;SDS011;7070;53.586;9.692;2023-07-30T04:12:04;7.97;;;3.63;;
13991;SDS011;7070;53.586;9.692;2023-07-30T04:14:31;8.10;;;4.13;;
13991;SDS011;7070;53.586;9.692;2023-07-30T04:16:58;9.07;;;4.37;;
13991;SDS011;7070;53.586;9.692;2023-07-30T04:19:25;6.97;;;3.90;;
13991;SDS011;7070;53.586;9.692;2023-07-30T04:21:52;6.60;;;3.60;;
13991;SDS011;7070;53.586;9.692;2023-07-30T04:24:19;7.67;;;4.07;;
13991;SDS011;7070;53.586;9.692;2023-07-30T04:26:45;6.20;;;3.50;;
13991;SDS011;7070;53.586;9.692;2023-07-30T04:29:14;8.03;;;4.30;;
13991;SDS011;7070;53.586;9.692;2023-07-30T04:31:41;9.23;;;4.57;;
13991;SDS011;7070;53.586;9.692;2023-07-30T04:34:08;7.57;;;3.83;;
13991;SDS011;7070;53.586;9.692;2023-07-30T04:36:35;8.17;;;4.57;;
13991;SDS011;7070;53.586;9.692;2023-07-30T04:39:02;11.43;;;3.80;;
13991;SDS011;7070;53.586;9.692;2023-07-30T04:41:28;6.53;;;3.80;;
13991;SDS011;7070;53.586;9.692;2023-07-30T04:43:55;7.53;;;3.80;;
13991;SDS011;7070;53.586;9.692;2023-07-30T04:46:23;8.30;;;3.97;;
13991;SDS011;7070;53.586;9.692;2023-07-30T04:48:50;6.23;;;3.83;;
13991;SDS011;7070;53.586;9.692;2023-07-30T04:51:17;7.60;;;4.47;;
13991;SDS011;7070;53.586;9.692;2023-07-30T04:53:44;8.27;;;4.60;;
13991;SDS011;7070;53.586;9.692;2023-07-30T04:56:11;9.07;;;4.30;;
13991;SDS011;7070;53.586;9.692;2023-07-30T04:58:38;7.27;;;4.43;;
13991;SDS011;7070;53.586;9.692;2023-07-30T05:01:05;12.77;;;4.87;;
13991;SDS011;7070;53.586;9.692;2023-07-30T05:03:33;10.30;;;4.10;;
13991;SDS011;7070;53.586;9.692;2023-07-30T05:06:02;7.30;;;4.30;;
13991;SDS011;7070;53.586;9.692;2023-07-30T05:08:43;10.50;;;4.30;;
13991;SDS011;7070;53.586;9.692;2023-07-30T05:11:09;6.50;;;4.03;;
13991;SDS011;7070;53.586;9.692;2023-07-30T05:13:36;10.23;;;4.17;;
13991;SDS011;7070;53.586;9.692;2023-07-30T05:16:03;7.67;;;4.20;;
13991;SDS011;7070;53.586;9.692;2023-07-30T05:18:30;12.40;;;4.67;;
13991;SDS011;7070;53.586;9.692;2023-07-30T05:20:58;9.20;;;4.57;;
13991;SDS011;7070;53.586;9.692;2023-07-30T05:23:25;14.17;;;4.40;;
13991;SDS011;7070;53.586;9.692;2023-07-30T05:25:52;9.07;;;4.40;;
13991;SDS011;7070;53.586;9.692;2023-07-30T05:28:19;5.17;;;3.47;;
13991;SDS011;7070;53.586;9.692;2023-07-30T05:30:45;8.80;;;3.93;;
13991;SDS011;7070;53.586;9.692;2023-07-30T05:33:12;12.00;;;3.90;;
13991;SDS011;7070;53.586;9.692;2023-07-30T05:35:39;8.17;;;4.20;;
13991;SDS011;7070;53.586;9.692;2023-07-30T05:38:07;8.50;;;3.93;;
13991;SDS011;7070;53.586;9.692;2023-07-30T05:40:35;8.03;;;3.70;;
13991;SDS011;7070;53.586;9.692;2023-07-30T05:43:02;7.13;;;3.03;;
13991;SDS011;7070;53.586;9.692;2023-07-30T05:45:29;7.93;;;3.83;;
13991;SDS011;7070;53.586;9.692;2023-07-30T05:47:56;4.00;;;3.00;;
13991;SDS011;7070;53.586;9.692;2023-07-30T05:50:23;8.33;;;4.10;;
13991;SDS011;7070;53.586;9.692;2023-07-30T05:52:50;8.53;;;3.43;;
13991;SDS011;7070;53.586;9.692;2023-07-30T05:55:18;7.10;;;3.30;;
13991;SDS011;7070;53.586;9.692;2023-07-30T05:57:45;8.43;;;3.30;;
13991;SDS011;7070;53.586;9.692;2023-07-30T06:00:12;9.77;;;4.10;;
13991;SDS011;7070;53.586;9.692;2023-07-30T06:02:39;5.67;;;3.77;;
13991;SDS011;7070;53.586;9.692;2023-07-30T06:05:06;6.87;;;4.07;;
13991;SDS011;7070;53.586;9.692;2023-07-30T06:07:33;9.33;;;4.60;;
13991;SDS011;7070;53.586;9.692;2023-07-30T06:10:00;11.40;;;4.13;;
13991;SDS011;7070;53.586;9.692;2023-07-30T06:12:28;10.50;;;4.13;;
13991;SDS011;7070;53.586;9.692;2023-07-30T06:14:55;11.40;;;3.87;;
13991;SDS011;7070;53.586;9.692;2023-07-30T06:17:22;6.57;;;3.53;;
13991;SDS011;7070;53.586;9.692;2023-07-30T06:19:49;8.10;;;4.00;;
13991;SDS011;7070;53.586;9.692;2023-07-30T06:22:16;10.10;;;3.70;;
13991;SDS011;7070;53.586;9.692;2023-07-30T06:24:43;5.90;;;3.63;;
13991;SDS011;7070;53.586;9.692;2023-07-30T06:27:10;7.20;;;4.20;;
13991;SDS011;7070;53.586;9.692;2023-07-30T06:29:38;6.77;;;3.63;;
13991;SDS011;7070;53.586;9.692;2023-07-30T06:32:06;7.83;;;4.20;;
13991;SDS011;7070;53.586;9.692;2023-07-30T06:34:33;12.17;;;3.53;;
13991;SDS011;7070;53.586;9.692;2023-07-30T06:37:00;10.70;;;3.40;;
13991;SDS011;7070;53.586;9.692;2023-07-30T06:39:27;8.53;;;3.40;;
13991;SDS011;7070;53.586;9.692;2023-07-30T06:41:53;6.63;;;3.87;;
13991;SDS011;7070;53.586;9.692;2023-07-30T06:44:20;12.23;;;3.83;;
13991;SDS011;7070;53.586;9.692;2023-07-30T06:46:50;6.13;;;3.60;;
13991;SDS011;7070;53.586;9.692;2023-07-30T06:49:17;8.90;;;3.57;;
13991;SDS011;7070;53.586;9.692;2023-07-30T06:51:44;7.87;;;3.43;;
13991;SDS011;7070;53.586;9.692;2023-07-30T06:54:11;9.13;;;3.37;;
13991;SDS011;7070;53.586;9.692;2023-07-30T06:56:38;5.93;;;3.53;;
13991;SDS011;7070;53.586;9.692;2023-07-30T06:59:05;6.13;;;3.63;;
13991;SDS011;7070;53.586;9.692;2023-07-30T07:01:31;10.27;;;3.80;;
13991;SDS011;7070;53.586;9.692;2023-07-30T07:04:00;8.47;;;4.63;;
13991;SDS011;7070;53.586;9.692;2023-07-30T07:06:26;11.43;;;4.53;;
13991;SDS011;7070;53.586;9.692;2023-07-30T07:08:53;8.07;;;3.70;;
13991;SDS011;7070;53.586;9.692;2023-07-30T07:11:20;8.10;;;4.13;;
13991;SDS011;7070;53.586;9.692;2023-07-30T07:13:47;9.70;;;4.80;;
13991;SDS011;7070;53.586;9.692;2023-07-30T07:16:14;9.40;;;3.90;;
13991;SDS011;7070;53.586;9.692;2023-07-30T07:18:41;7.90;;;3.67;;
13991;SDS011;7070;53.586;9.692;2023-07-30T07:21:09;6.80;;;3.17;;
13991;SDS011;7070;53.586;9.692;2023-07-30T07:23:37;7.43;;;3.83;;
13991;SDS011;7070;53.586;9.692;2023-07-30T07:26:04;8.57;;;3.97;;
13991;SDS011;7070;53.586;9.692;2023-07-30T07:28:31;12.67;;;3.53;;
13991;SDS011;7070;53.586;9.692;2023-07-30T07:30:57;10.37;;;3.83;;
13991;SDS011;7070;53.586;9.692;2023-07-30T07:33:24;10.20;;;4.00;;
13991;SDS011;7070;53.586;9.692;2023-07-30T07:35:51;10.60;;;4.43;;
13991;SDS011;7070;53.586;9.692;2023-07-30T07:38:29;12.47;;;4.57;;
13991;SDS011;7070;53.586;9.692;2023-07-30T07:40:56;16.10;;;4.50;;
13991;SDS011;7070;53.586;9.692;2023-07-30T07:43:23;6.53;;;4.03;;
13991;SDS011;7070;53.586;9.692;2023-07-30T07:45:50;10.10;;;5.33;;
13991;SDS011;7070;53.586;9.692;2023-07-30T07:48:17;13.83;;;5.43;;
13991;SDS011;7070;53.586;9.692;2023-07-30T07:50:44;20.53;;;5.47;;
13991;SDS011;7070;53.586;9.692;2023-07-30T07:53:11;10.77;;;6.13;;
13991;SDS011;7070;53.586;9.692;2023-07-30T07:55:39;11.70;;;6.90;;
13991;SDS011;7070;53.586;9.692;2023-07-30T07:58:06;10.50;;;5.47;;
13991;SDS011;7070;53.586;9.692;2023-07-30T08:00:33;9.73;;;5.27;;
13991;SDS011;7070;53.586;9.692;2023-07-30T08:03:00;16.53;;;6.03;;
13991;SDS011;7070;53.586;9.692;2023-07-30T08:05:27;13.30;;;6.20;;
13991;SDS011;7070;53.586;9.692;2023-07-30T08:07:54;17.30;;;6.23;;
13991;SDS011;7070;53.586;9.692;2023-07-30T08:10:21;10.00;;;5.57;;
13991;SDS011;7070;53.586;9.692;2023-07-30T08:12:49;15.53;;;6.57;;
13991;SDS011;7070;53.586;9.692;2023-07-30T08:15:16;11.30;;;7.27;;
13991;SDS011;7070;53.586;9.692;2023-07-30T08:17:42;9.73;;;6.60;;
13991;SDS011;7070;53.586;9.692;2023-07-30T08:20:10;11.53;;;6.67;;
13991;SDS011;7070;53.586;9.692;2023-07-30T08:22:37;12.10;;;6.57;;
13991;SDS011;7070;53.586;9.692;2023-07-30T08:25:04;14.93;;;7.20;;
13991;SDS011;7070;53.586;9.692;2023-07-30T08:27:32;8.93;;;5.87;;
13991;SDS011;7070;53.586;9.692;2023-07-30T08:30:00;13.93;;;6.10;;
13991;SDS011;7070;53.586;9.692;2023-07-30T08:32:27;14.33;;;6.20;;
13991;SDS011;7070;53.586;9.692;2023-07-30T08:34:54;11.83;;;6.37;;
13991;SDS011;7070;53.586;9.692;2023-07-30T08:37:21;12.77;;;6.10;;
13991;SDS011;7070;53.586;9.692;2023-07-30T08:39:48;8.87;;;5.50;;
13991;SDS011;7070;53.586;9.692;2023-07-30T08:42:15;9.83;;;5.77;;
13991;SDS011;7070;53.586;9.692;2023-07-30T08:44:42;8.20;;;5.30;;
13991;SDS011;7070;53.586;9.692;2023-07-30T08:47:10;12.03;;;5.57;;
13991;SDS011;7070;53.586;9.692;2023-07-30T08:49:37;13.23;;;5.70;;
13991;SDS011;7070;53.586;9.692;2023-07-30T08:52:05;9.50;;;5.57;;
13991;SDS011;7070;53.586;9.692;2023-07-30T08:54:35;11.60;;;5.23;;
13991;SDS011;7070;53.586;9.692;2023-07-30T08:57:03;6.77;;;4.27;;
13991;SDS011;7070;53.586;9.692;2023-07-30T08:59:31;10.23;;;5.07;;
13991;SDS011;7070;53.586;9.692;2023-07-30T09:02:03;6.63;;;4.50;;
13991;SDS011;7070;53.586;9.692;2023-07-30T09:04:36;17.27;;;5.07;;
13991;SDS011;7070;53.586;9.692;2023-07-30T09:07:07;12.73;;;6.17;;
13991;SDS011;7070;53.586;9.692;2023-07-30T09:09:35;13.00;;;6.33;;
13991;SDS011;7070;53.586;9.692;2023-07-30T09:12:03;10.17;;;5.77;;
13991;SDS011;7070;53.586;9.692;2023-07-30T09:14:31;9.60;;;5.37;;
13991;SDS011;7070;53.586;9.692;2023-07-30T09:16:57;7.43;;;4.93;;
13991;SDS011;7070;53.586;9.692;2023-07-30T09:19:24;12.33;;;5.77;;
13991;SDS011;7070;53.586;9.692;2023-07-30T09:21:53;10.57;;;6.37;;
13991;SDS011;7070;53.586;9.692;2023-07-30T09:24:20;10.73;;;6.80;;
13991;SDS011;7070;53.586;9.692;2023-07-30T09:26:48;12.90;;;7.87;;
13991;SDS011;7070;53.586;9.692;2023-07-30T09:29:15;16.07;;;8.77;;
13991;SDS011;7070;53.586;9.692;2023-07-30T09:31:48;14.17;;;7.00;;
13991;SDS011;7070;53.586;9.692;2023-07-30T09:34:19;11.50;;;6.40;;
13991;SDS011;7070;53.586;9.692;2023-07-30T09:36:46;14.97;;;6.30;;
13991;SDS011;7070;53.586;9.692;2023-07-30T09:39:18;10.00;;;6.43;;
13991;SDS011;7070;53.586;9.692;2023-07-30T09:41:46;11.30;;;6.30;;
13991;SDS011;7070;53.586;9.692;2023-07-30T09:44:15;15.17;;;7.03;;
13991;SDS011;7070;53.586;9.692;2023-07-30T09:46:43;14.27;;;7.93;;
13991;SDS011;7070;53.586;9.692;2023-07-30T09:49:11;16.37;;;7.27;;
13991;SDS011;7070;53.586;9.692;2023-07-30T09:51:38;14.80;;;8.30;;
13991;SDS011;7070;53.586;9.692;2023-07-30T09:54:06;16.37;;;8.37;;
13991;SDS011;7070;53.586;9.692;2023-07-30T09:56:35;12.90;;;8.47;;
13991;SDS011;7070;53.586;9.692;2023-07-30T09:59:02;10.02;;;7.05;;
13991;SDS011;7070;53.586;9.692;2023-07-30T10:01:29;12.52;;;9.02;;
13991;SDS011;7070;53.586;9.692;2023-07-30T10:03:57;13.35;;;7.35;;
13991;SDS011;7070;53.586;9.692;2023-07-30T10:06:25;11.25;;;5.55;;
13991;SDS011;7070;53.586;9.692;2023-07-30T10:08:55;10.93;;;5.80;;
13991;SDS011;7070;53.586;9.692;2023-07-30T10:11:24;10.70;;;5.30;;
13991;SDS011;7070;53.586;9.692;2023-07-30T10:13:53;9.88;;;4.70;;
13991;SDS011;7070;53.586;9.692;2023-07-30T10:16:24;14.18;;;5.18;;
13991;SDS011;7070;53.586;9.692;2023-07-30T10:18:55;5.93;;;5.32;;
13991;SDS011;7070;53.586;9.692;2023-07-30T10:21:23;8.75;;;5.80;;
13991;SDS011;7070;53.586;9.692;2023-07-30T10:23:57;10.30;;;5.57;;
13991;SDS011;7070;53.586;9.692;2023-07-30T10:26:26;10.30;;;5.00;;
13991;SDS011;7070;53.586;9.692;2023-07-30T10:31:40;5.78;;;4.28;;
13991;SDS011;7070;53.586;9.692;2023-07-30T10:34:08;13.68;;;3.65;;
13991;SDS011;7070;53.586;9.692;2023-07-30T10:36:37;5.78;;;2.50;;
13991;SDS011;7070;53.586;9.692;2023-07-30T10:39:12;3.80;;;2.13;;
13991;SDS011;7070;53.586;9.692;2023-07-30T10:41:40;3.47;;;1.17;;
13991;SDS011;7070;53.586;9.692;2023-07-30T10:44:18;6.50;;;1.55;;
13991;SDS011;7070;53.586;9.692;2023-07-30T10:46:47;4.57;;;1.48;;
13991;SDS011;7070;53.586;9.692;2023-07-30T10:49:14;2.20;;;1.00;;
13991;SDS011;7070;53.586;9.692;2023-07-30T10:51:41;3.08;;;1.58;;
13991;SDS011;7070;53.586;9.692;2023-07-30T10:54:08;5.55;;;1.63;;
13991;SDS011;7070;53.586;9.692;2023-07-30T10:56:35;4.07;;;1.20;;
13991;SDS011;7070;53.586;9.692;2023-07-30T10:59:03;5.30;;;1.48;;
13991;SDS011;7070;53.586;9.692;2023-07-30T11:01:35;4.82;;;1.23;;
13991;SDS011;7070;53.586;9.692;2023-07-30T11:04:05;4.35;;;1.25;;
13991;SDS011;7070;53.586;9.692;2023-07-30T11:06:33;4.18;;;1.35;;
13991;SDS011;7070;53.586;9.692;2023-07-30T11:08:59;6.40;;;1.23;;
13991;SDS011;7070;53.586;9.692;2023-07-30T11:11:26;4.20;;;1.33;;
13991;SDS011;7070;53.586;9.692;2023-07-30T11:13:53;2.45;;;1.15;;
13991;SDS011;7070;53.586;9.692;2023-07-30T11:16:20;4.63;;;1.17;;
13991;SDS011;7070;53.586;9.692;2023-07-30T11:18:49;1.67;;;0.90;;
13991;SDS011;7070;53.586;9.692;2023-07-30T11:21:17;3.83;;;1.30;;
13991;SDS011;7070;53.586;9.692;2023-07-30T11:23:45;4.15;;;1.35;;
13991;SDS011;7070;53.586;9.692;2023-07-30T11:26:16;5.97;;;1.58;;
13991;SDS011;7070;53.586;9.692;2023-07-30T11:28:44;5.30;;;1.77;;
13991;SDS011;7070;53.586;9.692;2023-07-30T11:31:11;6.55;;;1.83;;
13991;SDS011;7070;53.586;9.692;2023-07-30T11:33:40;4.72;;;1.35;;
13991;SDS011;7070;53.586;9.692;2023-07-30T11:36:10;2.30;;;1.45;;
13991;SDS011;7070;53.586;9.692;2023-07-30T11:38:38;4.20;;;1.67;;
13991;SDS011;7070;53.586;9.692;2023-07-30T11:41:06;3.63;;;1.33;;
13991;SDS011;7070;53.586;9.692;2023-07-30T11:43:36;7.82;;;1.30;;
13991;SDS011;7070;53.586;9.692;2023-07-30T11:46:05;6.82;;;1.70;;
13991;SDS011;7070;53.586;9.692;2023-07-30T11:48:34;2.92;;;1.38;;
13991;SDS011;7070;53.586;9.692;2023-07-30T11:51:01;1.75;;;1.25;;
13991;SDS011;7070;53.586;9.692;2023-07-30T11:53:45;4.03;;;1.50;;
13991;SDS011;7070;53.586;9.692;2023-07-30T11:56:21;4.70;;;1.58;;
13991;SDS011;7070;53.586;9.692;2023-07-30T11:58:50;4.55;;;1.42;;
13991;SDS011;7070;53.586;9.692;2023-07-30T12:01:22;5.80;;;1.70;;
13991;SDS011;7070;53.586;9.692;2023-07-30T12:03:50;6.88;;;1.50;;
13991;SDS011;7070;53.586;9.692;2023-07-30T12:06:19;2.17;;;1.13;;
13991;SDS011;7070;53.586;9.692;2023-07-30T12:08:49;6.88;;;1.60;;
13991;SDS011;7070;53.586;9.692;2023-07-30T12:11:17;2.63;;;1.38;;
13991;SDS011;7070;53.586;9.692;2023-07-30T12:13:46;5.72;;;1.60;;
13991;SDS011;7070;53.586;9.692;2023-07-30T12:16:15;11.00;;;1.73;;
13991;SDS011;7070;53.586;9.692;2023-07-30T12:18:42;4.28;;;1.30;;
13991;SDS011;7070;53.586;9.692;2023-07-30T12:21:09;12.45;;;2.25;;
13991;SDS011;7070;53.586;9.692;2023-07-30T12:23:37;3.10;;;1.30;;
13991;SDS011;7070;53.586;9.692;2023-07-30T12:26:06;4.95;;;1.40;;
13991;SDS011;7070;53.586;9.692;2023-07-30T12:28:33;2.95;;;1.40;;
13991;SDS011;7070;53.586;9.692;2023-07-30T12:31:00;6.32;;;1.55;;
13991;SDS011;7070;53.586;9.692;2023-07-30T12:33:27;4.65;;;1.42;;
13991;SDS011;7070;53.586;9.692;2023-07-30T12:35:54;10.07;;;1.45;;
13991;SDS011;7070;53.586;9.692;2023-07-30T12:38:21;11.15;;;1.50;;
13991;SDS011;7070;53.586;9.692;2023-07-30T12:40:48;6.38;;;1.85;;
13991;SDS011;7070;53.586;9.692;2023-07-30T12:43:16;2.95;;;1.50;;
13991;SDS011;7070;53.586;9.692;2023-07-30T12:45:45;5.38;;;1.40;;
13991;SDS011;7070;53.586;9.692;2023-07-30T12:48:12;2.83;;;1.33;;
13991;SDS011;7070;53.586;9.692;2023-07-30T12:50:39;5.07;;;1.47;;
13991;SDS011;7070;53.586;9.692;2023-07-30T12:53:06;11.57;;;1.97;;
13991;SDS011;7070;53.586;9.692;2023-07-30T12:55:33;4.43;;;1.10;;
13991;SDS011;7070;53.586;9.692;2023-07-30T12:58:00;3.07;;;1.07;;
13991;SDS011;7070;53.586;9.692;2023-07-30T13:00:29;2.30;;;1.00;;
13991;SDS011;7070;53.586;9.692;2023-07-30T13:02:56;4.33;;;1.20;;
13991;SDS011;7070;53.586;9.692;2023-07-30T13:05:23;3.10;;;0.80;;
13991;SDS011;7070;53.586;9.692;2023-07-30T13:07:50;1.77;;;0.73;;
13991;SDS011;7070;53.586;9.692;2023-07-30T13:10:16;2.60;;;0.60;;
13991;SDS011;7070;53.586;9.692;2023-07-30T13:12:44;1.90;;;0.87;;
13991;SDS011;7070;53.586;9.692;2023-07-30T13:15:10;2.23;;;0.80;;
13991;SDS011;7070;53.586;9.692;2023-07-30T13:17:39;1.50;;;0.83;;
13991;SDS011;7070;53.586;9.692;2023-07-30T13:20:06;1.63;;;0.87;;
13991;SDS011;7070;53.586;9.692;2023-07-30T13:22:34;6.53;;;1.30;;
13991;SDS011;7070;53.586;9.692;2023-07-30T13:25:00;1.33;;;0.70;;
13991;SDS011;7070;53.586;9.692;2023-07-30T13:27:28;1.50;;;0.80;;
13991;SDS011;7070;53.586;9.692;2023-07-30T13:29:55;0.70;;;0.60;;
13991;SDS011;7070;53.586;9.692;2023-07-30T13:32:22;1.20;;;0.77;;
13991;SDS011;7070;53.586;9.692;2023-07-30T13:34:50;2.20;;;0.90;;
13991;SDS011;7070;53.586;9.692;2023-07-30T13:37:17;1.70;;;0.97;;
13991;SDS011;7070;53.586;9.692;2023-07-30T13:39:44;1.33;;;0.80;;
13991;SDS011;7070;53.586;9.692;2023-07-30T13:42:11;1.00;;;0.90;;
13991;SDS011;7070;53.586;9.692;2023-07-30T13:44:37;2.77;;;1.03;;
13991;SDS011;7070;53.586;9.692;2023-07-30T13:47:05;2.63;;;1.00;;
13991;SDS011;7070;53.586;9.692;2023-07-30T13:49:32;4.47;;;0.90;;
13991;SDS011;7070;53.586;9.692;2023-07-30T13:52:00;2.07;;;1.03;;
13991;SDS011;7070;53.586;9.692;2023-07-30T13:54:27;1.30;;;0.80;;
13991;SDS011;7070;53.586;9.692;2023-07-30T13:56:54;2.10;;;0.80;;
13991;SDS011;7070;53.586;9.692;2023-07-30T13:59:21;1.30;;;1.10;;
13991;SDS011;7070;53.586;9.692;2023-07-30T14:01:47;2.13;;;1.10;;
13991;SDS011;7070;53.586;9.692;2023-07-30T14:04:14;1.07;;;0.90;;
13991;SDS011;7070;53.586;9.692;2023-07-30T14:06:46;2.17;;;1.10;;
13991;SDS011;7070;53.586;9.692;2023-07-30T14:09:14;2.47;;;1.20;;
13991;SDS011;7070;53.586;9.692;2023-07-30T14:11:42;1.47;;;0.87;;
13991;SDS011;7070;53.586;9.692;2023-07-30T14:14:11;2.20;;;0.70;;
13991;SDS011;7070;53.586;9.692;2023-07-30T14:16:38;1.33;;;0.90;;
13991;SDS011;7070;53.586;9.692;2023-07-30T14:19:08;2.60;;;0.97;;
13991;SDS011;7070;53.586;9.692;2023-07-30T14:21:35;1.37;;;0.93;;
13991;SDS011;7070;53.586;9.692;2023-07-30T14:24:05;1.90;;;0.97;;
13991;SDS011;7070;53.586;9.692;2023-07-30T14:26:35;1.10;;;0.80;;
13991;SDS011;7070;53.586;9.692;2023-07-30T14:29:02;3.20;;;0.80;;
13991;SDS011;7070;53.586;9.692;2023-07-30T14:31:29;7.57;;;1.10;;
13991;SDS011;7070;53.586;9.692;2023-07-30T14:33:59;4.17;;;0.90;;
13991;SDS011;7070;53.586;9.692;2023-07-30T14:36:26;3.50;;;0.90;;
13991;SDS011;7070;53.586;9.692;2023-07-30T14:38:53;0.87;;;0.57;;
13991;SDS011;7070;53.586;9.692;2023-07-30T14:41:20;2.40;;;0.80;;
13991;SDS011;7070;53.586;9.692;2023-07-30T14:43:48;2.00;;;1.00;;
13991;SDS011;7070;53.586;9.692;2023-07-30T14:46:15;1.83;;;1.07;;
13991;SDS011;7070;53.586;9.692;2023-07-30T14:48:42;1.77;;;0.93;;
13991;SDS011;7070;53.586;9.692;2023-07-30T14:51:09;4.13;;;1.30;;
13991;SDS011;7070;53.586;9.692;2023-07-30T14:53:36;2.00;;;1.03;;
13991;SDS011;7070;53.586;9.692;2023-07-30T14:56:03;3.57;;;1.17;;
13991;SDS011;7070;53.586;9.692;2023-07-30T14:58:30;2.50;;;1.30;;
13991;SDS011;7070;53.586;9.692;2023-07-30T15:00:58;5.00;;;1.40;;
13991;SDS011;7070;53.586;9.692;2023-07-30T15:03:25;2.23;;;1.00;;